createdAt,value
2023-03-01T00:00:24.575Z,99.99
2023-03-01T00:01:25.555Z,99.99
2023-03-01T00:02:25.574Z,99.99
2023-03-01T00:03:25.590Z,99.99
2023-03-01T00:04:25.548Z,99.99
2023-03-01T00:05:25.517Z,99.99
2023-03-01T00:06:25.501Z,99.99
2023-03-01T00:07:25.495Z,99.99
2023-03-01T00:08:25.480Z,99.99
2023-03-01T00:09:25.491Z,99.99
2023-03-01T00:10:25.467Z,99.99
2023-03-01T00:11:25.505Z,99.99
2023-03-01T00:12:25.440Z,99.99
2023-03-01T00:13:25.442Z,99.99
2023-03-01T00:14:25.457Z,99.99
2023-03-01T00:15:25.422Z,99.99
2023-03-01T00:16:25.437Z,99.99
2023-03-01T00:17:25.406Z,99.99
2023-03-01T00:18:25.392Z,99.99
2023-03-01T00:19:25.399Z,99.99
2023-03-01T00:20:25.394Z,99.99
2023-03-01T00:21:25.364Z,99.99
2023-03-01T00:22:25.355Z,99.99
2023-03-01T00:23:25.343Z,99.99
2023-03-01T00:24:25.350Z,99.99
2023-03-01T00:25:25.325Z,99.99
2023-03-01T00:26:25.312Z,99.99
2023-03-01T00:27:25.305Z,99.99
2023-03-01T00:28:25.293Z,99.99
2023-03-01T00:29:25.316Z,99.99
2023-03-01T00:30:25.539Z,99.99
2023-03-01T00:31:25.278Z,99.99
2023-03-01T00:32:25.282Z,99.99
2023-03-01T00:33:25.264Z,99.99
2023-03-01T00:34:25.253Z,99.99
2023-03-01T00:35:25.259Z,99.99
2023-03-01T00:36:25.218Z,99.99
2023-03-01T00:37:25.234Z,99.99
2023-03-01T00:38:25.204Z,99.99
2023-03-01T00:39:25.212Z,99.99
2023-03-01T00:40:25.179Z,99.99
2023-03-01T00:41:25.175Z,99.99
2023-03-01T00:42:25.164Z,99.99
2023-03-01T00:43:25.162Z,99.99
2023-03-01T00:44:25.163Z,99.99
2023-03-01T00:45:25.142Z,99.99
2023-03-01T00:46:25.156Z,99.99
2023-03-01T00:47:25.123Z,99.99
2023-03-01T00:48:25.112Z,99.99
2023-03-01T00:49:25.125Z,99.99
2023-03-01T00:50:25.093Z,99.99
2023-03-01T00:51:25.087Z,99.99
2023-03-01T00:52:25.074Z,99.99
2023-03-01T00:53:25.064Z,99.99
2023-03-01T00:54:25.064Z,99.99
2023-03-01T00:55:25.060Z,99.99
2023-03-01T00:56:25.031Z,99.99
2023-03-01T00:57:25.029Z,99.99
2023-03-01T00:58:25.018Z,99.99
2023-03-01T00:59:25.027Z,99.99
2023-03-01T01:00:25.002Z,99.99
2023-03-01T01:01:25.052Z,99.99
2023-03-01T01:02:25.003Z,99.99
2023-03-01T01:03:24.971Z,99.99
2023-03-01T01:04:24.969Z,99.99
2023-03-01T01:05:24.952Z,99.99
2023-03-01T01:06:24.951Z,99.99
2023-03-01T01:07:24.928Z,99.99
2023-03-01T01:08:24.916Z,99.99
2023-03-01T01:09:24.929Z,99.99
2023-03-01T01:10:24.897Z,99.99
2023-03-01T01:11:24.902Z,99.99
2023-03-01T01:12:24.877Z,99.99
2023-03-01T01:13:24.878Z,99.99
2023-03-01T01:14:24.889Z,99.99
2023-03-01T01:15:24.856Z,99.99
2023-03-01T01:16:24.844Z,99.99
2023-03-01T01:17:24.837Z,99.99
2023-03-01T01:18:24.827Z,99.99
2023-03-01T01:19:24.827Z,99.99
2023-03-01T01:20:24.805Z,99.99
2023-03-01T01:21:24.803Z,99.99
2023-03-01T01:22:24.789Z,99.99
2023-03-01T01:23:24.781Z,99.99
2023-03-01T01:24:24.772Z,99.99
2023-03-01T01:25:24.762Z,99.99
2023-03-01T01:26:24.749Z,99.99
2023-03-01T01:27:24.753Z,99.99
2023-03-01T01:28:24.732Z,99.99
2023-03-01T01:29:24.748Z,99.99
2023-03-01T01:30:24.713Z,99.99
2023-03-01T01:31:24.841Z,99.99
2023-03-01T01:32:26.762Z,99.99
2023-03-01T01:33:24.685Z,99.99
2023-03-01T01:34:24.727Z,99.99
2023-03-01T01:35:24.695Z,99.99
2023-03-01T01:36:24.653Z,99.99
2023-03-01T01:37:24.643Z,99.99
2023-03-01T01:38:24.631Z,99.99
2023-03-01T01:39:24.638Z,99.99
2023-03-01T01:40:24.609Z,99.99
2023-03-01T01:41:24.604Z,99.99
2023-03-01T01:42:24.594Z,99.99
2023-03-01T01:43:24.588Z,99.99
2023-03-01T01:44:24.672Z,99.99
2023-03-01T01:45:24.568Z,99.99
2023-03-01T01:46:24.610Z,99.99
2023-03-01T01:47:24.546Z,99.99
2023-03-01T01:48:24.533Z,99.99
2023-03-01T01:49:24.547Z,99.99
2023-03-01T01:50:24.534Z,99.99
2023-03-01T01:51:24.514Z,99.99
2023-03-01T01:52:24.498Z,99.99
2023-03-01T01:53:24.494Z,99.99
2023-03-01T01:54:24.490Z,99.99
2023-03-01T01:55:24.479Z,99.99
2023-03-01T01:56:24.458Z,99.99
2023-03-01T01:57:24.456Z,99.99
2023-03-01T01:58:24.439Z,99.99
2023-03-01T01:59:24.470Z,99.99
2023-03-01T02:00:24.423Z,99.99
2023-03-01T02:01:24.416Z,99.99
2023-03-01T02:02:24.572Z,99.99
2023-03-01T02:03:24.569Z,99.99
2023-03-01T02:04:24.381Z,99.99
2023-03-01T02:05:24.389Z,99.99
2023-03-01T02:06:24.359Z,99.99
2023-03-01T02:07:24.358Z,99.99
2023-03-01T02:08:24.344Z,99.99
2023-03-01T02:09:24.343Z,99.99
2023-03-01T02:10:24.350Z,99.99
2023-03-01T02:11:24.318Z,99.99
2023-03-01T02:12:24.321Z,99.99
2023-03-01T02:13:24.304Z,99.99
2023-03-01T02:14:24.286Z,99.99
2023-03-01T02:15:24.302Z,99.99
2023-03-01T02:16:24.318Z,99.99
2023-03-01T02:17:24.261Z,99.99
2023-03-01T02:18:24.251Z,99.99
2023-03-01T02:19:24.244Z,99.99
2023-03-01T02:20:24.254Z,99.99
2023-03-01T02:21:24.224Z,99.99
2023-03-01T02:22:24.260Z,99.99
2023-03-01T02:23:24.206Z,99.99
2023-03-01T02:24:24.195Z,99.99
2023-03-01T02:25:24.213Z,99.99
2023-03-01T02:26:24.175Z,99.99
2023-03-01T02:27:24.167Z,99.99
2023-03-01T02:28:24.151Z,99.99
2023-03-01T02:29:24.154Z,99.99
2023-03-01T02:30:24.185Z,99.99
2023-03-01T02:31:24.166Z,99.99
2023-03-01T02:32:24.168Z,99.99
2023-03-01T02:33:24.124Z,99.99
2023-03-01T02:34:24.099Z,99.99
2023-03-01T02:35:24.175Z,99.99
2023-03-01T02:36:24.080Z,99.99
2023-03-01T02:37:24.091Z,99.99
2023-03-01T02:38:24.059Z,99.99
2023-03-01T02:39:24.059Z,99.99
2023-03-01T02:40:24.058Z,99.99
2023-03-01T02:41:24.041Z,99.99
2023-03-01T02:42:26.236Z,99.99
2023-03-01T02:43:24.024Z,99.99
2023-03-01T02:44:24.010Z,99.99
2023-03-01T02:45:24.022Z,99.99
2023-03-01T02:46:24.102Z,99.99
2023-03-01T02:47:23.981Z,99.99
2023-03-01T02:48:23.966Z,99.99
2023-03-01T02:49:23.958Z,99.99
2023-03-01T02:50:23.954Z,99.99
2023-03-01T02:51:23.952Z,99.99
2023-03-01T02:52:23.938Z,99.99
2023-03-01T02:53:23.919Z,99.99
2023-03-01T02:54:23.916Z,99.99
2023-03-01T02:55:23.923Z,99.99
2023-03-01T02:56:23.906Z,99.99
2023-03-01T02:57:23.894Z,99.99
2023-03-01T02:58:23.879Z,99.99
2023-03-01T02:59:23.862Z,99.99
2023-03-01T03:00:23.899Z,99.99
2023-03-01T03:01:23.847Z,99.99
2023-03-01T03:02:23.842Z,99.99
2023-03-01T03:03:23.908Z,99.99
2023-03-01T03:04:23.827Z,99.99
2023-03-01T03:05:23.833Z,99.99
2023-03-01T03:06:23.801Z,99.99
2023-03-01T03:07:23.790Z,99.99
2023-03-01T03:08:23.828Z,99.99
2023-03-01T03:09:23.768Z,99.99
2023-03-01T03:10:23.801Z,99.99
2023-03-01T03:11:23.757Z,99.99
2023-03-01T03:12:23.745Z,99.99
2023-03-01T03:13:23.734Z,99.99
2023-03-01T03:14:23.748Z,99.99
2023-03-01T03:15:23.737Z,99.99
2023-03-01T03:16:23.774Z,99.99
2023-03-01T03:17:23.690Z,99.99
2023-03-01T03:18:23.706Z,99.99
2023-03-01T03:19:23.695Z,99.99
2023-03-01T03:20:23.712Z,99.99
2023-03-01T03:21:23.668Z,99.99
2023-03-01T03:22:23.660Z,99.99
2023-03-01T03:23:23.646Z,99.99
2023-03-01T03:24:23.630Z,99.99
2023-03-01T03:25:23.653Z,99.99
2023-03-01T03:26:23.614Z,99.99
2023-03-01T03:27:23.599Z,99.99
2023-03-01T03:28:23.592Z,99.99
2023-03-01T03:29:23.577Z,99.99
2023-03-01T03:30:23.588Z,99.99
2023-03-01T03:31:23.615Z,99.99
2023-03-01T03:32:23.591Z,99.99
2023-03-01T03:33:23.545Z,99.99
2023-03-01T03:34:23.534Z,99.99
2023-03-01T03:35:23.538Z,99.99
2023-03-01T03:36:23.516Z,99.99
2023-03-01T03:37:23.501Z,99.99
2023-03-01T03:38:23.499Z,99.99
2023-03-01T03:39:23.481Z,99.99
2023-03-01T03:40:23.493Z,99.99
2023-03-01T03:41:23.461Z,99.99
2023-03-01T03:42:23.461Z,99.99
2023-03-01T03:43:23.460Z,99.99
2023-03-01T03:44:23.440Z,99.99
2023-03-01T03:45:23.444Z,99.99
2023-03-01T03:46:23.418Z,99.99
2023-03-01T03:47:23.409Z,99.99
2023-03-01T03:48:23.405Z,99.99
2023-03-01T03:49:23.387Z,99.99
2023-03-01T03:50:23.405Z,99.99
2023-03-01T03:51:23.366Z,99.99
2023-03-01T03:52:23.375Z,99.99
2023-03-01T03:53:23.348Z,99.99
2023-03-01T03:54:23.347Z,99.99
2023-03-01T03:55:23.348Z,99.99
2023-03-01T03:56:23.329Z,99.99
2023-03-01T03:57:23.314Z,99.99
2023-03-01T03:58:23.306Z,99.99
2023-03-01T03:59:23.295Z,99.99
2023-03-01T04:00:23.314Z,99.99
2023-03-01T04:01:23.359Z,99.99
2023-03-01T04:02:23.448Z,99.99
2023-03-01T04:03:23.262Z,99.99
2023-03-01T04:04:23.257Z,99.99
2023-03-01T04:05:23.256Z,99.99
2023-03-01T04:06:23.232Z,99.99
2023-03-01T04:07:23.228Z,99.99
2023-03-01T04:08:23.224Z,99.99
2023-03-01T04:09:23.199Z,99.99
2023-03-01T04:10:23.204Z,99.99
2023-03-01T04:11:23.180Z,99.99
2023-03-01T04:12:23.172Z,99.99
2023-03-01T04:13:23.169Z,99.99
2023-03-01T04:14:23.156Z,99.99
2023-03-01T04:15:23.164Z,99.99
2023-03-01T04:16:23.213Z,99.99
2023-03-01T04:17:23.122Z,99.99
2023-03-01T04:18:23.116Z,99.99
2023-03-01T04:19:23.103Z,99.99
2023-03-01T04:20:23.123Z,99.99
2023-03-01T04:21:23.088Z,99.99
2023-03-01T04:22:23.081Z,99.99
2023-03-01T04:23:23.072Z,99.99
2023-03-01T04:24:23.061Z,99.99
2023-03-01T04:25:23.060Z,99.99
2023-03-01T04:26:23.047Z,99.99
2023-03-01T04:27:23.027Z,99.99
2023-03-01T04:28:23.042Z,99.99
2023-03-01T04:29:23.014Z,99.99
2023-03-01T04:30:23.013Z,99.99
2023-03-01T04:31:23.079Z,99.99
2023-03-01T04:32:23.050Z,99.99
2023-03-01T04:33:23.002Z,99.99
2023-03-01T04:34:22.976Z,99.99
2023-03-01T04:35:23.074Z,99.99
2023-03-01T04:36:23.141Z,99.99
2023-03-01T04:37:22.936Z,99.99
2023-03-01T04:38:22.931Z,99.99
2023-03-01T04:39:22.914Z,99.99
2023-03-01T04:40:22.937Z,99.99
2023-03-01T04:41:22.915Z,99.99
2023-03-01T04:42:22.892Z,99.99
2023-03-01T04:43:22.882Z,99.99
2023-03-01T04:44:22.875Z,99.99
2023-03-01T04:45:22.867Z,99.99
2023-03-01T04:46:23.050Z,99.99
2023-03-01T04:47:22.844Z,99.99
2023-03-01T04:48:22.833Z,99.99
2023-03-01T04:49:22.819Z,99.99
2023-03-01T04:50:22.827Z,99.99
2023-03-01T04:51:22.811Z,99.99
2023-03-01T04:52:22.800Z,99.99
2023-03-01T04:53:22.781Z,99.99
2023-03-01T04:54:22.776Z,99.99
2023-03-01T04:55:22.787Z,99.99
2023-03-01T04:56:22.756Z,99.99
2023-03-01T04:57:22.746Z,99.99
2023-03-01T04:58:22.738Z,99.99
2023-03-01T04:59:22.724Z,99.99
2023-03-01T05:00:22.726Z,99.99
2023-03-01T05:01:22.721Z,99.99
2023-03-01T05:02:22.733Z,99.99
2023-03-01T05:03:22.705Z,99.99
2023-03-01T05:04:22.706Z,99.99
2023-03-01T05:05:22.694Z,99.99
2023-03-01T05:06:22.677Z,99.99
2023-03-01T05:07:22.654Z,99.99
2023-03-01T05:08:22.639Z,99.99
2023-03-01T05:09:22.633Z,99.99
2023-03-01T05:10:22.625Z,99.99
2023-03-01T05:11:22.661Z,99.99
2023-03-01T05:12:22.610Z,99.99
2023-03-01T05:13:22.591Z,99.99
2023-03-01T05:14:22.585Z,99.99
2023-03-01T05:15:22.575Z,99.99
2023-03-01T05:16:22.582Z,99.99
2023-03-01T05:17:22.551Z,99.99
2023-03-01T05:18:22.552Z,99.99
2023-03-01T05:19:22.534Z,99.99
2023-03-01T05:20:22.526Z,99.99
2023-03-01T05:21:22.544Z,99.99
2023-03-01T05:22:22.521Z,99.99
2023-03-01T05:23:22.512Z,99.99
2023-03-01T05:24:22.489Z,99.99
2023-03-01T05:25:22.553Z,99.99
2023-03-01T05:26:28.151Z,99.99
2023-03-01T05:27:22.462Z,99.99
2023-03-01T05:28:22.473Z,99.99
2023-03-01T05:29:22.444Z,99.99
2023-03-01T05:30:22.446Z,99.99
2023-03-01T05:31:22.504Z,99.99
2023-03-01T05:32:22.401Z,99.99
2023-03-01T05:33:22.410Z,99.99
2023-03-01T05:34:22.354Z,99.99
2023-03-01T05:35:22.358Z,99.99
2023-03-01T05:36:22.330Z,99.99
2023-03-01T05:37:22.315Z,99.99
2023-03-01T05:38:22.323Z,99.99
2023-03-01T05:39:22.299Z,99.99
2023-03-01T05:40:22.345Z,99.99
2023-03-01T05:41:22.334Z,99.99
2023-03-01T05:42:22.315Z,99.99
2023-03-01T05:43:22.276Z,99.99
2023-03-01T05:44:22.254Z,99.99
2023-03-01T05:45:22.232Z,99.99
2023-03-01T05:46:22.294Z,99.99
2023-03-01T05:47:22.247Z,99.99
2023-03-01T05:48:22.212Z,99.99
2023-03-01T05:49:22.198Z,99.99
2023-03-01T05:50:22.196Z,99.99
2023-03-01T05:51:22.189Z,99.99
2023-03-01T05:52:22.171Z,99.99
2023-03-01T05:53:22.214Z,99.99
2023-03-01T05:54:22.170Z,99.99
2023-03-01T05:55:22.149Z,99.99
2023-03-01T05:56:22.169Z,99.99
2023-03-01T05:57:22.116Z,99.99
2023-03-01T05:58:22.119Z,99.99
2023-03-01T05:59:22.099Z,99.99
2023-03-01T06:00:22.095Z,99.99
2023-03-01T06:01:22.108Z,99.99
2023-03-01T06:02:22.074Z,99.99
2023-03-01T06:03:22.071Z,99.99
2023-03-01T06:04:22.219Z,99.99
2023-03-01T06:05:22.077Z,99.99
2023-03-01T06:06:22.049Z,99.99
2023-03-01T06:07:22.038Z,99.99
2023-03-01T06:08:22.023Z,99.99
2023-03-01T06:09:22.006Z,99.99
2023-03-01T06:10:22.011Z,99.99
2023-03-01T06:11:22.007Z,99.99
2023-03-01T06:12:21.983Z,99.99
2023-03-01T06:13:21.974Z,99.99
2023-03-01T06:14:21.982Z,99.99
2023-03-01T06:15:21.954Z,99.99
2023-03-01T06:16:21.962Z,99.99
2023-03-01T06:17:21.933Z,99.99
2023-03-01T06:18:21.926Z,99.99
2023-03-01T06:19:21.925Z,99.99
2023-03-01T06:20:21.907Z,99.99
2023-03-01T06:21:21.923Z,99.99
2023-03-01T06:22:21.890Z,99.99
2023-03-01T06:23:21.893Z,99.99
2023-03-01T06:24:21.869Z,99.99
2023-03-01T06:25:21.870Z,99.99
2023-03-01T06:26:21.874Z,99.99
2023-03-01T06:27:21.845Z,99.99
2023-03-01T06:28:21.830Z,99.99
2023-03-01T06:29:21.825Z,99.99
2023-03-01T06:30:21.862Z,99.99
2023-03-01T06:31:21.902Z,99.99
2023-03-01T06:32:21.839Z,99.99
2023-03-01T06:33:21.780Z,99.99
2023-03-01T06:34:21.790Z,99.99
2023-03-01T06:35:21.815Z,99.99
2023-03-01T06:36:21.775Z,99.69
2023-03-01T06:37:21.753Z,99.48
2023-03-01T06:38:21.737Z,99.27
2023-03-01T06:39:21.724Z,99.58
2023-03-01T06:40:21.718Z,99.58
2023-03-01T06:41:21.725Z,99.99
2023-03-01T06:42:21.699Z,99.99
2023-03-01T06:43:21.689Z,99.99
2023-03-01T06:44:21.691Z,99.99
2023-03-01T06:45:21.680Z,99.99
2023-03-01T06:46:21.714Z,99.99
2023-03-01T06:47:21.658Z,99.99
2023-03-01T06:48:21.651Z,99.99
2023-03-01T06:49:21.642Z,99.99
2023-03-01T06:50:21.682Z,99.99
2023-03-01T06:51:21.633Z,99.99
2023-03-01T06:52:21.604Z,99.13
2023-03-01T06:53:21.592Z,98.87
2023-03-01T06:54:21.585Z,99.52
2023-03-01T06:55:21.566Z,97.83
2023-03-01T06:56:21.576Z,97.15
2023-03-01T06:57:21.552Z,97.42
2023-03-01T06:58:21.545Z,96.47
2023-03-01T06:59:21.538Z,95.37
2023-03-01T07:00:21.524Z,95.37
2023-03-01T07:01:21.699Z,94.70
2023-03-01T07:02:21.506Z,94.02
2023-03-01T07:03:21.489Z,94.29
2023-03-01T07:04:21.499Z,93.83
2023-03-01T07:05:21.476Z,93.05
2023-03-01T07:06:21.475Z,92.16
2023-03-01T07:07:21.481Z,91.60
2023-03-01T07:08:21.446Z,90.71
2023-03-01T07:09:21.455Z,89.56
2023-03-01T07:10:21.432Z,89.66
2023-03-01T07:11:21.452Z,89.69
2023-03-01T07:12:21.404Z,88.70
2023-03-01T07:13:21.414Z,87.60
2023-03-01T07:14:21.381Z,86.90
2023-03-01T07:15:21.377Z,86.44
2023-03-01T07:16:21.431Z,85.56
2023-03-01T07:17:21.364Z,84.47
2023-03-01T07:18:21.353Z,84.33
2023-03-01T07:19:21.354Z,81.78
2023-03-01T07:21:12.384Z,81.70
2023-03-01T07:22:13.377Z,80.20
2023-03-01T07:23:13.350Z,78.11
2023-03-01T07:24:13.365Z,79.54
2023-03-01T07:25:13.331Z,77.48
2023-03-01T07:26:13.341Z,75.32
2023-03-01T07:27:13.319Z,77.69
2023-03-01T07:28:13.306Z,75.95
2023-03-01T07:29:13.289Z,75.09
2023-03-01T07:30:13.291Z,74.39
2023-03-01T07:31:13.300Z,73.83
2023-03-01T07:32:13.365Z,69.40
2023-03-01T07:33:13.303Z,69.27
2023-03-01T07:34:13.257Z,67.16
2023-03-01T07:35:13.232Z,65.81
2023-03-01T07:36:13.250Z,63.01
2023-03-01T07:37:13.213Z,64.95
2023-03-01T07:38:13.209Z,63.89
2023-03-01T07:39:13.202Z,60.33
2023-03-01T07:40:13.188Z,61.13
2023-03-01T07:41:13.182Z,59.86
2023-03-01T07:42:13.164Z,56.44
2023-03-01T07:43:13.151Z,57.58
2023-03-01T07:44:13.147Z,58.72
2023-03-01T07:45:13.137Z,57.89
2023-03-01T07:46:13.142Z,62.21
2023-03-01T07:47:13.111Z,57.09
2023-03-01T07:48:13.120Z,61.25
2023-03-01T07:49:13.094Z,62.88
2023-03-01T07:50:13.087Z,59.05
2023-03-01T07:51:13.098Z,59.29
2023-03-01T07:52:13.066Z,57.99
2023-03-01T07:53:13.072Z,53.67
2023-03-01T07:54:13.047Z,58.72
2023-03-01T07:55:13.037Z,60.46
2023-03-01T07:56:13.058Z,56.29
2023-03-01T07:57:13.021Z,56.41
2023-03-01T07:58:13.006Z,57.60
2023-03-01T07:59:12.998Z,59.30
2023-03-01T08:00:13.006Z,59.06
2023-03-01T08:01:13.010Z,59.24
2023-03-01T08:02:13.017Z,55.07
2023-03-01T08:03:12.991Z,58.87
2023-03-01T08:04:12.944Z,57.01
2023-03-01T08:05:12.954Z,58.87
2023-03-01T08:06:12.941Z,57.53
2023-03-01T08:07:12.906Z,58.74
2023-03-01T08:08:12.915Z,59.11
2023-03-01T08:09:12.887Z,56.75
2023-03-01T08:10:12.888Z,58.51
2023-03-01T08:11:12.886Z,61.44
2023-03-01T08:12:12.859Z,58.88
2023-03-01T08:13:12.852Z,61.05
2023-03-01T08:14:12.839Z,60.36
2023-03-01T08:15:12.826Z,61.22
2023-03-01T08:16:12.876Z,60.83
2023-03-01T08:17:12.802Z,64.46
2023-03-01T08:18:12.795Z,63.21
2023-03-01T08:19:12.781Z,63.69
2023-03-01T08:20:12.777Z,62.76
2023-03-01T08:21:12.789Z,64.45
2023-03-01T08:22:12.784Z,64.51
2023-03-01T08:23:12.743Z,63.81
2023-03-01T08:24:12.749Z,66.54
2023-03-01T08:25:12.734Z,67.66
2023-03-01T08:26:12.722Z,65.50
2023-03-01T08:27:12.727Z,66.83
2023-03-01T08:28:12.709Z,66.68
2023-03-01T08:29:12.681Z,67.26
2023-03-01T08:30:12.678Z,69.38
2023-03-01T08:31:12.665Z,71.50
2023-03-01T08:32:12.829Z,69.00
2023-03-01T08:33:12.705Z,69.10
2023-03-01T08:34:12.638Z,70.18
2023-03-01T08:35:12.625Z,70.78
2023-03-01T08:36:12.621Z,71.64
2023-03-01T08:37:12.627Z,70.04
2023-03-01T08:38:12.636Z,72.09
2023-03-01T08:39:12.585Z,72.30
2023-03-01T08:40:12.581Z,69.81
2023-03-01T08:41:12.564Z,68.71
2023-03-01T08:42:12.576Z,65.19
2023-03-01T08:43:12.553Z,62.23
2023-03-01T08:44:12.537Z,63.68
2023-03-01T08:45:12.528Z,63.32
2023-03-01T08:46:12.599Z,65.94
2023-03-01T08:47:12.530Z,65.25
2023-03-01T08:48:12.495Z,64.42
2023-03-01T08:49:12.494Z,65.66
2023-03-01T08:50:12.473Z,68.44
2023-03-01T08:51:12.487Z,66.25
2023-03-01T08:52:12.474Z,66.91
2023-03-01T08:53:12.449Z,64.15
2023-03-01T08:54:12.433Z,63.71
2023-03-01T08:55:12.442Z,63.10
2023-03-01T08:56:12.426Z,60.94
2023-03-01T08:57:12.425Z,60.47
2023-03-01T08:58:12.391Z,55.87
2023-03-01T08:59:12.399Z,57.19
2023-03-01T09:00:12.384Z,56.21
2023-03-01T09:01:12.368Z,58.20
2023-03-01T09:02:12.472Z,56.62
2023-03-01T09:03:12.352Z,57.76
2023-03-01T09:04:14.031Z,58.15
2023-03-01T09:05:12.334Z,57.65
2023-03-01T09:06:12.327Z,57.81
2023-03-01T09:07:12.322Z,53.76
2023-03-01T09:08:12.306Z,54.46
2023-03-01T09:09:12.279Z,54.43
2023-03-01T09:10:12.284Z,51.07
2023-03-01T09:11:12.262Z,54.19
2023-03-01T09:12:12.290Z,55.20
2023-03-01T09:13:12.242Z,54.35
2023-03-01T09:14:12.269Z,53.68
2023-03-01T09:15:12.216Z,51.84
2023-03-01T09:16:12.278Z,52.91
2023-03-01T09:17:12.392Z,53.60
2023-03-01T09:18:12.192Z,52.83
2023-03-01T09:19:12.233Z,51.09
2023-03-01T09:20:12.192Z,51.82
2023-03-01T09:21:12.168Z,50.82
2023-03-01T09:22:12.172Z,49.66
2023-03-01T09:23:12.138Z,48.02
2023-03-01T09:24:12.163Z,47.99
2023-03-01T09:25:12.116Z,47.72
2023-03-01T09:26:12.110Z,46.18
2023-03-01T09:27:12.112Z,46.53
2023-03-01T09:28:27.595Z,50.81
2023-03-01T09:29:12.083Z,46.67
2023-03-01T09:30:12.072Z,46.18
2023-03-01T09:31:12.063Z,45.48
2023-03-01T09:32:12.134Z,45.75
2023-03-01T09:33:12.037Z,43.77
2023-03-01T09:34:12.131Z,45.58
2023-03-01T09:35:12.015Z,47.31
2023-03-01T09:36:12.012Z,46.88
2023-03-01T09:37:12.011Z,44.64
2023-03-01T09:38:11.994Z,45.28
2023-03-01T09:39:11.968Z,44.90
2023-03-01T09:40:11.977Z,46.66
2023-03-01T09:41:11.958Z,46.45
2023-03-01T09:42:11.958Z,46.59
2023-03-01T09:43:11.932Z,46.08
2023-03-01T09:44:11.929Z,44.08
2023-03-01T09:45:11.912Z,45.62
2023-03-01T09:46:11.932Z,45.97
2023-03-01T09:47:11.958Z,44.17
2023-03-01T09:48:11.901Z,46.01
2023-03-01T09:49:11.882Z,44.84
2023-03-01T09:50:11.869Z,47.98
2023-03-01T09:51:11.851Z,46.76
2023-03-01T09:52:11.876Z,46.15
2023-03-01T09:53:11.837Z,43.85
2023-03-01T09:54:11.828Z,45.17
2023-03-01T09:55:11.812Z,43.85
2023-03-01T09:56:11.804Z,44.39
2023-03-01T09:57:11.812Z,45.40
2023-03-01T09:58:11.794Z,44.31
2023-03-01T09:59:11.769Z,46.00
2023-03-01T10:00:11.783Z,46.86
2023-03-01T10:01:11.748Z,44.98
2023-03-01T10:02:11.824Z,45.40
2023-03-01T10:03:11.724Z,45.09
2023-03-01T10:04:11.777Z,45.40
2023-03-01T10:05:11.747Z,44.68
2023-03-01T10:06:18.669Z,45.11
2023-03-01T10:07:11.709Z,44.49
2023-03-01T10:08:11.691Z,43.96
2023-03-01T10:09:11.673Z,45.07
2023-03-01T10:10:11.660Z,44.08
2023-03-01T10:11:11.651Z,44.20
2023-03-01T10:12:11.656Z,44.92
2023-03-01T10:13:11.624Z,46.08
2023-03-01T10:14:11.621Z,44.37
2023-03-01T10:15:11.607Z,45.32
2023-03-01T10:16:11.667Z,44.62
2023-03-01T10:17:11.620Z,44.95
2023-03-01T10:18:11.577Z,44.18
2023-03-01T10:19:11.559Z,43.20
2023-03-01T10:20:11.549Z,39.90
2023-03-01T10:21:11.539Z,42.29
2023-03-01T10:22:11.552Z,42.72
2023-03-01T10:23:11.517Z,43.42
2023-03-01T10:24:11.519Z,42.42
2023-03-01T10:25:11.495Z,44.41
2023-03-01T10:26:11.489Z,43.79
2023-03-01T10:27:11.514Z,42.77
2023-03-01T10:28:11.470Z,43.51
2023-03-01T10:29:11.471Z,42.99
2023-03-01T10:30:11.446Z,43.85
2023-03-01T10:31:11.511Z,44.72
2023-03-01T10:32:11.568Z,44.51
2023-03-01T10:33:11.434Z,44.04
2023-03-01T10:34:11.417Z,45.19
2023-03-01T10:35:11.391Z,44.78
2023-03-01T10:36:11.418Z,41.95
2023-03-01T10:37:11.563Z,41.97
2023-03-01T10:38:11.364Z,38.89
2023-03-01T10:39:11.349Z,42.86
2023-03-01T10:40:11.359Z,43.16
2023-03-01T10:41:11.333Z,43.77
2023-03-01T10:42:11.348Z,44.00
2023-03-01T10:43:11.309Z,42.48
2023-03-01T10:44:11.301Z,42.13
2023-03-01T10:45:11.290Z,41.47
2023-03-01T10:46:11.292Z,44.32
2023-03-01T10:47:11.302Z,45.19
2023-03-01T10:48:11.262Z,45.46
2023-03-01T10:49:11.244Z,44.10
2023-03-01T10:50:11.237Z,43.84
2023-03-01T10:51:11.243Z,41.49
2023-03-01T10:52:11.241Z,41.09
2023-03-01T10:53:11.202Z,37.57
2023-03-01T10:54:11.197Z,39.02
2023-03-01T10:55:11.183Z,40.56
2023-03-01T10:56:11.184Z,38.58
2023-03-01T10:57:11.175Z,41.31
2023-03-01T10:58:11.187Z,39.29
2023-03-01T10:59:11.141Z,37.04
2023-03-01T11:00:11.134Z,36.99
2023-03-01T11:01:11.119Z,38.31
2023-03-01T11:02:23.582Z,38.68
2023-03-01T11:03:11.109Z,38.32
2023-03-01T11:04:11.090Z,36.24
2023-03-01T11:05:11.079Z,37.13
2023-03-01T11:06:11.072Z,37.74
2023-03-01T11:07:11.131Z,37.16
2023-03-01T11:08:11.059Z,39.00
2023-03-01T11:09:11.042Z,38.05
2023-03-01T11:10:11.055Z,40.85
2023-03-01T11:11:11.018Z,43.42
2023-03-01T11:12:11.012Z,42.47
2023-03-01T11:13:11.015Z,41.98
2023-03-01T11:14:25.048Z,42.25
2023-03-01T11:15:10.987Z,42.07
2023-03-01T11:16:11.047Z,41.63
2023-03-01T11:17:10.955Z,42.56
2023-03-01T11:18:14.279Z,40.53
2023-03-01T11:19:11.044Z,39.74
2023-03-01T11:20:10.931Z,37.59
2023-03-01T11:21:10.915Z,37.47
2023-03-01T11:22:10.941Z,38.32
2023-03-01T11:23:10.905Z,37.55
2023-03-01T11:24:10.889Z,36.63
2023-03-01T11:25:11.102Z,38.26
2023-03-01T11:26:12.895Z,40.26
2023-03-01T11:27:10.854Z,39.94
2023-03-01T11:28:10.888Z,39.13
2023-03-01T11:29:10.828Z,40.40
2023-03-01T11:30:10.827Z,40.65
2023-03-01T11:31:10.906Z,39.40
2023-03-01T11:32:11.049Z,40.91
2023-03-01T11:33:10.904Z,40.03
2023-03-01T11:34:10.805Z,40.01
2023-03-01T11:35:10.769Z,40.57
2023-03-01T11:36:10.827Z,40.03
2023-03-01T11:37:10.747Z,38.19
2023-03-01T11:38:10.757Z,38.51
2023-03-01T11:39:10.728Z,39.80
2023-03-01T11:40:10.741Z,41.10
2023-03-01T11:41:10.712Z,39.81
2023-03-01T11:42:18.555Z,37.90
2023-03-01T11:43:10.841Z,37.26
2023-03-01T11:44:10.685Z,36.46
2023-03-01T11:45:10.687Z,36.96
2023-03-01T11:46:12.562Z,38.44
2023-03-01T11:47:10.701Z,37.95
2023-03-01T11:48:10.654Z,37.33
2023-03-01T11:49:10.627Z,38.95
2023-03-01T11:50:10.625Z,38.98
2023-03-01T11:51:10.603Z,41.53
2023-03-01T11:52:10.602Z,40.19
2023-03-01T11:53:10.733Z,41.89
2023-03-01T11:54:10.597Z,41.94
2023-03-01T11:55:10.568Z,42.80
2023-03-01T11:56:10.568Z,41.89
2023-03-01T11:57:10.561Z,42.66
2023-03-01T11:58:10.574Z,41.67
2023-03-01T11:59:10.536Z,42.14
2023-03-01T12:00:10.531Z,41.98
2023-03-01T12:01:10.510Z,42.31
2023-03-01T12:02:10.564Z,42.29
2023-03-01T12:03:10.516Z,42.93
2023-03-01T12:04:10.503Z,43.34
2023-03-01T12:05:10.465Z,40.98
2023-03-01T12:06:10.461Z,41.60
2023-03-01T12:07:10.461Z,40.61
2023-03-01T12:08:10.454Z,41.75
2023-03-01T12:09:10.424Z,42.05
2023-03-01T12:10:10.421Z,42.54
2023-03-01T12:11:10.398Z,41.25
2023-03-01T12:12:10.400Z,39.97
2023-03-01T12:13:10.405Z,41.94
2023-03-01T12:14:10.384Z,41.70
2023-03-01T12:15:10.367Z,41.35
2023-03-01T12:16:10.435Z,42.46
2023-03-01T12:17:10.435Z,43.30
2023-03-01T12:18:10.347Z,42.23
2023-03-01T12:19:10.315Z,42.44
2023-03-01T12:20:10.433Z,41.37
2023-03-01T12:21:10.300Z,41.43
2023-03-01T12:22:10.317Z,41.41
2023-03-01T12:23:20.023Z,40.93
2023-03-01T12:24:10.279Z,41.88
2023-03-01T12:25:10.253Z,42.68
2023-03-01T12:26:10.569Z,40.95
2023-03-01T12:27:10.245Z,41.55
2023-03-01T12:28:10.242Z,40.68
2023-03-01T12:29:10.212Z,41.22
2023-03-01T12:30:10.208Z,40.38
2023-03-01T12:31:10.196Z,41.00
2023-03-01T12:32:10.392Z,40.30
2023-03-01T12:33:10.192Z,41.88
2023-03-01T12:34:10.168Z,41.80
2023-03-01T12:35:10.156Z,41.39
2023-03-01T12:36:10.185Z,41.23
2023-03-01T12:37:10.130Z,38.92
2023-03-01T12:38:10.139Z,39.64
2023-03-01T12:39:10.110Z,37.73
2023-03-01T12:40:10.101Z,38.81
2023-03-01T12:41:10.089Z,39.50
2023-03-01T12:42:10.081Z,41.61
2023-03-01T12:43:10.081Z,40.77
2023-03-01T12:44:10.066Z,39.81
2023-03-01T12:45:10.047Z,38.71
2023-03-01T12:46:10.136Z,37.19
2023-03-01T12:47:10.031Z,37.35
2023-03-01T12:48:10.056Z,38.29
2023-03-01T12:49:10.012Z,38.65
2023-03-01T12:50:09.998Z,38.08
2023-03-01T12:51:10.002Z,36.68
2023-03-01T12:52:09.990Z,37.05
2023-03-01T12:53:09.985Z,35.50